createdAt,value
2023-02-14T00:01:25.786Z,6.32
2023-02-14T00:03:54.723Z,6.32
2023-02-14T00:06:22.297Z,6.35
2023-02-14T00:08:52.365Z,6.37
2023-02-14T00:11:20.701Z,6.38
2023-02-14T00:14:06.777Z,6.41
2023-02-14T00:16:34.210Z,6.39
2023-02-14T00:19:04.597Z,6.42
2023-02-14T00:21:41.038Z,6.40
2023-02-14T00:24:14.262Z,6.46
2023-02-14T00:26:42.457Z,6.41
2023-02-14T00:29:13.947Z,6.42
2023-02-14T00:31:42.359Z,6.42
2023-02-14T00:34:11.278Z,6.44
2023-02-14T00:36:39.532Z,6.38
2023-02-14T00:39:10.933Z,6.34
2023-02-14T00:41:39.895Z,6.32
2023-02-14T00:44:09.793Z,6.29
2023-02-14T00:46:38.829Z,6.35
2023-02-14T00:49:06.615Z,6.29
2023-02-14T00:51:33.986Z,6.23
2023-02-14T00:54:02.065Z,6.27
2023-02-14T00:56:29.572Z,6.17
2023-02-14T00:58:57.262Z,6.12
2023-02-14T01:01:24.575Z,6.13
2023-02-14T01:03:52.190Z,6.08
2023-02-14T01:06:19.977Z,6.11
2023-02-14T01:08:47.937Z,6.15
2023-02-14T01:11:19.994Z,6.12
2023-02-14T01:13:49.839Z,6.11
2023-02-14T01:16:23.824Z,6.13
2023-02-14T01:18:52.368Z,6.16
2023-02-14T01:21:28.136Z,6.13
2023-02-14T01:23:59.852Z,6.14
2023-02-14T01:26:29.380Z,6.18
2023-02-14T01:28:57.553Z,6.12
2023-02-14T01:31:31.750Z,5.94
2023-02-14T01:34:00.626Z,5.86
2023-02-14T01:36:38.724Z,5.82
2023-02-14T01:39:13.773Z,5.76
2023-02-14T01:41:44.233Z,5.79
2023-02-14T01:44:14.834Z,5.72
2023-02-14T01:46:45.318Z,5.56
2023-02-14T01:49:18.587Z,5.53
2023-02-14T01:52:04.498Z,5.56
2023-02-14T01:54:39.000Z,5.55
2023-02-14T01:57:12.440Z,5.44
2023-02-14T01:59:51.249Z,5.43
2023-02-14T02:02:23.812Z,5.48
2023-02-14T02:04:56.056Z,5.49
2023-02-14T02:07:26.952Z,5.50
2023-02-14T02:10:00.776Z,5.55
2023-02-14T02:12:30.528Z,5.55
2023-02-14T02:15:00.542Z,5.64
2023-02-14T02:17:48.653Z,5.68
2023-02-14T02:20:31.659Z,5.66
2023-02-14T02:23:15.120Z,5.67
2023-02-14T02:26:13.682Z,5.65
2023-02-14T02:29:32.977Z,5.62
2023-02-14T02:32:27.879Z,5.61
2023-02-14T02:35:28.358Z,5.65
2023-02-14T02:38:10.822Z,5.73
2023-02-14T02:41:48.953Z,5.75
2023-02-14T02:44:44.571Z,5.78
2023-02-14T02:47:37.614Z,5.74
2023-02-14T02:51:03.551Z,5.77
2023-02-14T02:53:59.060Z,5.66
2023-02-14T02:56:47.374Z,5.69
2023-02-14T02:59:21.372Z,5.66
2023-02-14T03:02:23.040Z,5.67
2023-02-14T03:04:59.620Z,5.62
2023-02-14T03:07:39.871Z,5.63
2023-02-14T03:10:21.544Z,5.66
2023-02-14T03:13:26.116Z,5.59
2023-02-14T03:16:25.750Z,5.55
2023-02-14T03:19:36.470Z,5.53
2023-02-14T03:22:20.424Z,5.58
2023-02-14T03:25:24.661Z,5.60
2023-02-14T03:28:09.700Z,5.66
2023-02-14T03:31:07.412Z,5.61
2023-02-14T03:33:47.626Z,5.63
2023-02-14T03:36:31.883Z,5.65
2023-02-14T03:39:16.440Z,5.63
2023-02-14T03:42:10.061Z,5.62
2023-02-14T03:44:41.182Z,5.69
2023-02-14T03:47:16.630Z,5.68
2023-02-14T03:50:00.191Z,5.59
2023-02-14T03:52:30.348Z,5.51
2023-02-14T03:55:01.463Z,5.51
2023-02-14T03:58:14.661Z,5.45
2023-02-14T04:00:44.272Z,5.36
2023-02-14T04:03:15.333Z,5.37
2023-02-14T04:05:46.858Z,5.39
2023-02-14T04:08:26.360Z,5.37
2023-02-14T04:10:56.773Z,5.46
2023-02-14T04:13:24.449Z,5.30
2023-02-14T04:15:51.762Z,5.33
2023-02-14T04:18:37.832Z,5.38
2023-02-14T04:21:06.004Z,5.34
2023-02-14T04:23:33.632Z,5.30
2023-02-14T04:26:00.931Z,5.27
2023-02-14T04:28:28.547Z,5.32
2023-02-14T04:30:55.892Z,5.30
2023-02-14T04:33:24.479Z,5.30
2023-02-14T04:35:51.759Z,5.32
2023-02-14T04:38:19.288Z,5.30
2023-02-14T04:40:52.039Z,5.25
2023-02-14T04:43:20.268Z,5.25
2023-02-14T04:45:47.860Z,5.21
2023-02-14T04:48:15.588Z,5.28
2023-02-14T04:50:42.815Z,5.31
2023-02-14T04:53:10.525Z,5.38
2023-02-14T04:55:37.841Z,5.37
2023-02-14T04:58:05.512Z,5.33
2023-02-14T05:00:32.906Z,5.33
2023-02-14T05:03:00.497Z,5.46
2023-02-14T05:05:27.837Z,5.43
2023-02-14T05:07:55.421Z,5.38
2023-02-14T05:10:22.713Z,5.42
2023-02-14T05:12:50.245Z,5.45
2023-02-14T05:15:17.682Z,5.35
2023-02-14T05:17:45.174Z,5.37
2023-02-14T05:20:12.854Z,5.32
2023-02-14T05:22:40.350Z,5.27
2023-02-14T05:25:08.147Z,5.28
2023-02-14T05:27:35.668Z,5.12
2023-02-14T05:30:03.187Z,5.22
2023-02-14T05:32:30.700Z,5.10
2023-02-14T05:34:59.209Z,5.12
2023-02-14T05:37:28.469Z,5.17
2023-02-14T05:39:55.726Z,5.13
2023-02-14T05:42:23.284Z,5.00
2023-02-14T05:44:50.563Z,5.11
2023-02-14T05:47:18.199Z,5.07
2023-02-14T05:49:45.485Z,5.17
2023-02-14T05:52:13.064Z,5.07
2023-02-14T05:54:40.287Z,5.03
2023-02-14T05:57:07.964Z,5.09
2023-02-14T05:59:35.245Z,5.11
2023-02-14T06:02:02.948Z,5.28
2023-02-14T06:04:30.367Z,5.24
2023-02-14T06:06:57.975Z,5.27
2023-02-14T06:09:25.447Z,5.30
2023-02-14T06:11:55.200Z,5.39
2023-02-14T06:14:23.053Z,5.32
2023-02-14T06:16:50.800Z,5.32
2023-02-14T06:19:18.134Z,5.35
2023-02-14T06:21:45.735Z,5.41
2023-02-14T06:24:13.321Z,5.41
2023-02-14T06:26:40.847Z,5.42
2023-02-14T06:29:08.231Z,5.43
2023-02-14T06:31:36.111Z,5.41
2023-02-14T06:34:03.375Z,5.43
2023-02-14T06:36:30.881Z,5.48
2023-02-14T06:38:58.156Z,5.51
2023-02-14T06:41:25.750Z,5.50
2023-02-14T06:43:53.286Z,5.53
2023-02-14T06:46:21.422Z,5.48
2023-02-14T06:48:48.814Z,5.56
2023-02-14T06:51:16.503Z,5.58
2023-02-14T06:53:43.819Z,5.63
2023-02-14T06:56:11.442Z,5.66
2023-02-14T06:58:38.736Z,5.64
2023-02-14T07:01:06.429Z,5.73
2023-02-14T07:03:33.659Z,5.67
2023-02-14T07:06:01.394Z,5.73
2023-02-14T07:08:28.691Z,5.77
2023-02-14T07:10:58.869Z,5.78
2023-02-14T07:13:26.706Z,5.88
2023-02-14T07:15:54.591Z,5.90
2023-02-14T07:18:21.972Z,5.92
2023-02-14T07:20:51.266Z,5.91
2023-02-14T07:23:19.072Z,6.04
2023-02-14T07:25:46.669Z,5.99
2023-02-14T07:28:13.921Z,6.03
2023-02-14T07:30:41.573Z,6.14
2023-02-14T07:33:08.987Z,6.26
2023-02-14T07:35:36.665Z,6.20
2023-02-14T07:38:04.059Z,6.31
2023-02-14T07:40:31.925Z,6.30
2023-02-14T07:43:00.905Z,6.40
2023-02-14T07:45:28.564Z,6.41
2023-02-14T07:47:56.011Z,6.46
2023-02-14T07:50:24.120Z,6.48
2023-02-14T07:52:51.704Z,6.60
2023-02-14T07:55:19.516Z,6.68
2023-02-14T07:57:50.050Z,6.69
2023-02-14T08:00:18.505Z,6.65
2023-02-14T08:02:45.859Z,6.60
2023-02-14T08:05:14.961Z,6.65
2023-02-14T08:07:44.011Z,6.72
2023-02-14T08:10:13.126Z,6.79
2023-02-14T08:12:59.532Z,6.87
2023-02-14T08:15:54.321Z,6.99
2023-02-14T08:18:27.558Z,6.99
2023-02-14T08:20:55.333Z,7.14
2023-02-14T08:23:23.870Z,7.15
2023-02-14T08:25:53.252Z,7.21
2023-02-14T08:28:23.853Z,7.25
2023-02-14T08:30:52.561Z,7.33
2023-02-14T08:33:21.047Z,7.45
2023-02-14T08:35:51.680Z,7.48
2023-02-14T08:38:19.160Z,7.62
2023-02-14T08:40:46.785Z,7.86
2023-02-14T08:43:14.545Z,8.18
2023-02-14T08:45:42.266Z,8.02
2023-02-14T08:48:12.695Z,8.10
2023-02-14T08:50:43.349Z,8.03
2023-02-14T08:53:13.521Z,7.94
2023-02-14T08:55:41.636Z,7.77
2023-02-14T08:58:09.182Z,7.96
2023-02-14T09:00:36.913Z,7.85
2023-02-14T09:03:04.545Z,8.04
2023-02-14T09:05:34.223Z,8.19
2023-02-14T09:08:03.600Z,8.43
2023-02-14T09:10:31.731Z,8.49
2023-02-14T09:12:59.041Z,8.57
2023-02-14T09:15:26.752Z,8.58
2023-02-14T09:17:54.079Z,8.42
2023-02-14T09:20:21.929Z,8.33
2023-02-14T09:22:49.589Z,8.39
2023-02-14T09:25:17.616Z,8.37
2023-02-14T09:27:46.422Z,8.44
2023-02-14T09:30:15.433Z,8.45
2023-02-14T09:32:42.779Z,8.73
2023-02-14T09:35:10.395Z,8.79
2023-02-14T09:37:37.694Z,8.97
2023-02-14T09:40:06.340Z,9.15
2023-02-14T09:42:38.965Z,9.36
2023-02-14T09:45:26.963Z,9.52
2023-02-14T09:48:44.387Z,9.82
2023-02-14T09:51:21.387Z,9.87
2023-02-14T09:54:15.027Z,9.88
2023-02-14T09:57:11.469Z,9.93
2023-02-14T10:00:07.240Z,10.65
2023-02-14T10:02:46.752Z,10.85
2023-02-14T10:06:02.275Z,10.86
2023-02-14T10:08:48.454Z,11.27
2023-02-14T10:11:22.620Z,11.18
2023-02-14T10:13:57.562Z,11.03
2023-02-14T10:16:53.857Z,10.79
2023-02-14T10:19:32.157Z,10.89
2023-02-14T10:22:07.198Z,10.92
2023-02-14T10:24:51.753Z,10.62
2023-02-14T10:27:58.316Z,10.85
2023-02-14T10:30:26.220Z,11.09
2023-02-14T10:33:17.711Z,11.17
2023-02-14T10:36:19.262Z,11.26
2023-02-14T10:38:46.515Z,11.50
2023-02-14T10:41:18.070Z,11.60
2023-02-14T10:43:54.174Z,11.33
2023-02-14T10:47:16.339Z,11.43
2023-02-14T10:50:03.423Z,11.59
2023-02-14T10:52:53.422Z,11.45
2023-02-14T10:56:21.851Z,11.13
2023-02-14T10:58:53.842Z,10.48
2023-02-14T11:01:21.966Z,10.29
2023-02-14T11:04:03.838Z,10.32
2023-02-14T11:06:31.515Z,10.16
2023-02-14T11:08:59.577Z,10.03
2023-02-14T11:11:48.586Z,9.87
2023-02-14T11:14:26.547Z,9.80
2023-02-14T11:16:55.208Z,9.74
2023-02-14T11:19:31.775Z,9.66
2023-02-14T11:22:02.767Z,9.67
2023-02-14T11:24:42.318Z,9.46
2023-02-14T11:27:12.575Z,9.43
2023-02-14T11:29:53.131Z,9.29
2023-02-14T11:32:24.746Z,9.22
2023-02-14T11:34:58.082Z,9.08
2023-02-14T11:37:31.538Z,9.10
2023-02-14T11:40:02.083Z,9.17
2023-02-14T11:42:47.756Z,9.23
2023-02-14T11:45:37.536Z,9.39
2023-02-14T11:48:37.209Z,9.38
2023-02-14T11:51:14.135Z,9.43
2023-02-14T11:53:56.079Z,9.44
2023-02-14T11:56:24.752Z,9.35
2023-02-14T11:59:03.065Z,9.21
2023-02-14T12:01:38.717Z,8.96
2023-02-14T12:04:20.852Z,8.82
2023-02-14T12:06:49.038Z,8.92
2023-02-14T12:09:22.338Z,8.97
2023-02-14T12:11:58.330Z,8.99
2023-02-14T12:14:31.109Z,8.74
2023-02-14T12:17:07.471Z,8.80
2023-02-14T12:20:08.496Z,8.74
2023-02-14T12:23:10.941Z,8.77
2023-02-14T12:26:06.346Z,8.90
2023-02-14T12:28:48.296Z,9.00
2023-02-14T12:31:17.564Z,8.99
2023-02-14T12:33:46.881Z,9.10
2023-02-14T12:36:41.202Z,9.06
2023-02-14T12:39:40.848Z,8.97
2023-02-14T12:42:27.724Z,8.98
2023-02-14T12:46:04.846Z,8.93
2023-02-14T12:49:03.335Z,9.06
2023-02-14T12:51:50.575Z,9.02
2023-02-14T12:54:39.372Z,8.98
2023-02-14T12:57:30.662Z,9.11
2023-02-14T13:00:35.645Z,9.15
2023-02-14T13:03:34.972Z,8.98
2023-02-14T13:06:17.815Z,8.85
2023-02-14T13:09:44.328Z,8.74
2023-02-14T13:12:23.236Z,8.74
2023-02-14T13:15:32.883Z,8.79
2023-02-14T13:18:35.187Z,8.87
2023-02-14T13:21:09.722Z,8.98
2023-02-14T13:23:43.951Z,9.05
2023-02-14T13:26:32.571Z,8.86
2023-02-14T13:29:09.656Z,8.81
2023-02-14T13:31:39.470Z,8.84
2023-02-14T13:34:28.570Z,8.58
2023-02-14T13:36:59.419Z,8.60
2023-02-14T13:39:44.433Z,8.57
2023-02-14T13:42:13.089Z,8.63
2023-02-14T13:44:48.069Z,8.71
2023-02-14T13:47:23.237Z,8.92
2023-02-14T13:50:05.987Z,8.94
2023-02-14T13:52:54.881Z,8.92
2023-02-14T13:55:29.361Z,8.82
2023-02-14T13:58:19.298Z,8.91
2023-02-14T14:00:49.221Z,8.98
2023-02-14T14:03:43.092Z,8.85
2023-02-14T14:06:13.195Z,8.93
2023-02-14T14:08:45.203Z,8.72
2023-02-14T14:11:21.606Z,8.75
2023-02-14T14:14:02.461Z,8.81
2023-02-14T14:16:36.714Z,8.85
2023-02-14T14:19:27.024Z,8.74
2023-02-14T14:22:04.027Z,8.73
2023-02-14T14:24:38.301Z,8.72
2023-02-14T14:27:34.860Z,8.67
2023-02-14T14:30:35.387Z,8.61
2023-02-14T14:33:32.534Z,8.36
2023-02-14T14:36:02.632Z,8.31
2023-02-14T14:38:32.607Z,8.26
2023-02-14T14:41:02.182Z,8.19
2023-02-14T14:43:38.522Z,8.06
2023-02-14T14:46:13.238Z,8.09
2023-02-14T14:48:54.443Z,7.95
2023-02-14T14:51:28.980Z,8.12
2023-02-14T14:54:03.441Z,8.04
2023-02-14T14:56:47.158Z,8.03
2023-02-14T14:59:37.455Z,7.96
2023-02-14T15:02:23.527Z,7.92
2023-02-14T15:04:50.906Z,7.82
2023-02-14T15:07:34.784Z,7.75
2023-02-14T15:10:03.238Z,7.60
2023-02-14T15:12:49.975Z,7.50
2023-02-14T15:15:18.917Z,7.59
2023-02-14T15:17:48.199Z,7.52
2023-02-14T15:20:21.956Z,7.52
2023-02-14T15:22:53.186Z,7.59
2023-02-14T15:25:30.686Z,7.60
2023-02-14T15:27:58.867Z,7.47
2023-02-14T15:30:34.044Z,7.55
2023-02-14T15:33:07.767Z,7.51
2023-02-14T15:35:42.403Z,7.47
2023-02-14T15:38:13.489Z,7.47
2023-02-14T15:40:44.189Z,7.50
2023-02-14T15:43:33.336Z,7.45
2023-02-14T15:46:28.949Z,7.43
2023-02-14T15:49:01.353Z,7.30
2023-02-14T15:51:36.590Z,7.32
2023-02-14T15:54:18.225Z,7.32
2023-02-14T15:56:51.665Z,7.40
2023-02-14T15:59:19.154Z,7.45
2023-02-14T16:02:02.366Z,7.41
2023-02-14T16:04:33.990Z,7.40
2023-02-14T16:07:27.642Z,7.41
2023-02-14T16:10:25.916Z,7.36
2023-02-14T16:13:12.958Z,7.37
2023-02-14T16:16:03.516Z,7.34
2023-02-14T16:18:47.840Z,7.33
2023-02-14T16:21:33.499Z,7.37
2023-02-14T16:24:11.007Z,7.35
2023-02-14T16:26:46.909Z,7.29
2023-02-14T16:29:17.661Z,7.30
2023-02-14T16:32:14.777Z,7.30
2023-02-14T16:34:43.608Z,7.33
2023-02-14T16:37:31.714Z,7.33
2023-02-14T16:40:02.067Z,7.36
2023-02-14T16:42:29.820Z,7.39
2023-02-14T16:44:58.364Z,7.40
2023-02-14T16:47:27.971Z,7.29
2023-02-14T16:49:55.414Z,7.31
2023-02-14T16:52:28.313Z,7.27
2023-02-14T16:54:55.705Z,7.30
2023-02-14T16:57:42.980Z,7.23
2023-02-14T17:00:11.951Z,7.25
2023-02-14T17:02:39.808Z,7.31
2023-02-14T17:05:07.551Z,7.36
2023-02-14T17:07:37.546Z,7.33
2023-02-14T17:10:17.040Z,7.34
2023-02-14T17:12:48.796Z,7.42
2023-02-14T17:15:22.360Z,7.42
2023-02-14T17:17:55.813Z,7.43
2023-02-14T17:20:24.474Z,7.44
2023-02-14T17:22:52.340Z,7.42
2023-02-14T17:25:19.789Z,7.39
2023-02-14T17:27:48.321Z,7.43
2023-02-14T17:30:16.218Z,7.42
2023-02-14T17:32:44.243Z,7.44
2023-02-14T17:35:12.125Z,7.42
2023-02-14T17:37:39.930Z,7.45
2023-02-14T17:40:08.892Z,7.48
2023-02-14T17:42:37.408Z,7.53
2023-02-14T17:45:06.688Z,7.59
2023-02-14T17:47:35.279Z,7.65
2023-02-14T17:50:04.047Z,7.66
2023-02-14T17:52:32.258Z,7.70
2023-02-14T17:55:00.104Z,7.73
2023-02-14T17:57:27.766Z,7.74
2023-02-14T17:59:55.119Z,7.78
2023-02-14T18:02:22.750Z,7.81
2023-02-14T18:04:50.117Z,7.80
2023-02-14T18:07:17.715Z,7.78
2023-02-14T18:09:44.977Z,7.76
2023-02-14T18:12:37.432Z,7.73
2023-02-14T18:15:05.703Z,7.74
2023-02-14T18:17:34.945Z,7.71
2023-02-14T18:20:03.293Z,7.71
2023-02-14T18:22:31.772Z,7.67
2023-02-14T18:24:59.203Z,7.65
2023-02-14T18:27:26.892Z,7.65
2023-02-14T18:29:54.332Z,7.63
2023-02-14T18:32:21.965Z,7.64
2023-02-14T18:34:51.321Z,7.64
2023-02-14T18:37:19.214Z,7.64
2023-02-14T18:39:46.858Z,7.65
2023-02-14T18:42:14.487Z,7.69
2023-02-14T18:44:41.760Z,7.64
2023-02-14T18:47:09.526Z,7.58
2023-02-14T18:49:36.849Z,7.60
2023-02-14T18:52:05.132Z,7.64
2023-02-14T18:54:32.422Z,7.67
2023-02-14T18:57:00.220Z,7.69
2023-02-14T18:59:27.533Z,7.72
2023-02-14T19:01:55.182Z,7.72
2023-02-14T19:04:22.451Z,7.72
2023-02-14T19:06:50.105Z,7.73
2023-02-14T19:09:18.763Z,7.74
2023-02-14T19:11:46.665Z,7.67
2023-02-14T19:14:14.425Z,7.58
2023-02-14T19:16:51.244Z,7.51
2023-02-14T19:19:19.775Z,7.47
2023-02-14T19:21:47.422Z,7.45
2023-02-14T19:24:17.561Z,7.46
2023-02-14T19:26:45.653Z,7.28
2023-02-14T19:29:17.162Z,7.28
2023-02-14T19:31:52.540Z,7.28
2023-02-14T19:34:29.368Z,7.23
2023-02-14T19:37:00.609Z,7.29
2023-02-14T19:39:30.087Z,7.26
2023-02-14T19:41:58.934Z,7.25
2023-02-14T19:44:26.506Z,7.31
2023-02-14T19:46:56.497Z,7.28
2023-02-14T19:49:24.018Z,7.31
2023-02-14T19:51:51.640Z,7.32
2023-02-14T19:54:21.959Z,7.31
2023-02-14T19:56:49.624Z,7.36
2023-02-14T19:59:20.475Z,7.41
2023-02-14T20:01:55.148Z,7.41
2023-02-14T20:04:29.543Z,7.39
2023-02-14T20:06:58.081Z,7.45
2023-02-14T20:09:25.860Z,7.48
2023-02-14T20:11:56.088Z,7.51
2023-02-14T20:14:27.620Z,7.51
2023-02-14T20:16:59.078Z,7.50
2023-02-14T20:19:32.665Z,7.51
2023-02-14T20:22:01.000Z,7.53
2023-02-14T20:24:31.672Z,7.56
2023-02-14T20:27:00.629Z,7.60
2023-02-14T20:29:29.120Z,7.60
2023-02-14T20:32:01.481Z,7.64
2023-02-14T20:34:28.996Z,7.63
2023-02-14T20:36:58.605Z,7.59
2023-02-14T20:39:31.699Z,7.55
2023-02-14T20:42:00.871Z,7.58
2023-02-14T20:44:28.586Z,7.58
2023-02-14T20:46:57.398Z,7.59
2023-02-14T20:49:28.229Z,7.62
2023-02-14T20:51:56.189Z,7.60
2023-02-14T20:54:26.642Z,7.57
2023-02-14T20:56:54.295Z,7.57
2023-02-14T20:59:28.916Z,7.58
2023-02-14T21:01:59.282Z,7.57
2023-02-14T21:04:28.249Z,7.46
2023-02-14T21:06:57.940Z,7.42
2023-02-14T21:09:25.279Z,7.37
2023-02-14T21:11:54.074Z,7.35
2023-02-14T21:14:21.925Z,7.36
2023-02-14T21:16:49.677Z,7.38
2023-02-14T21:19:17.716Z,7.39
2023-02-14T21:21:45.773Z,7.41
2023-02-14T21:24:16.236Z,7.40
2023-02-14T21:26:44.957Z,7.39
2023-02-14T21:29:12.269Z,7.41
2023-02-14T21:31:40.015Z,7.43
2023-02-14T21:34:07.359Z,7.34
2023-02-14T21:36:36.064Z,7.35
2023-02-14T21:39:04.965Z,7.36
2023-02-14T21:41:34.302Z,7.29
2023-02-14T21:44:03.219Z,7.26
2023-02-14T21:46:36.286Z,7.23
2023-02-14T21:49:24.556Z,7.18
2023-02-14T21:51:52.262Z,7.19
2023-02-14T21:54:19.675Z,7.22
2023-02-14T21:56:49.307Z,7.24
2023-02-14T21:59:16.643Z,7.25
2023-02-14T22:01:44.540Z,7.25
2023-02-14T22:04:13.050Z,7.21
2023-02-14T22:06:42.591Z,7.20
2023-02-14T22:09:13.868Z,7.16
2023-02-14T22:11:42.233Z,7.17
2023-02-14T22:14:09.702Z,7.12
2023-02-14T22:16:38.263Z,7.09
2023-02-14T22:19:07.582Z,7.08
2023-02-14T22:21:35.492Z,7.09
2023-02-14T22:24:03.246Z,7.07
2023-02-14T22:26:34.742Z,7.05
2023-02-14T22:29:03.387Z,7.05
2023-02-14T22:31:37.850Z,7.06
2023-02-14T22:34:07.793Z,7.00
2023-02-14T22:36:35.966Z,6.96
2023-02-14T22:39:04.554Z,6.98
2023-02-14T22:41:37.760Z,6.93
2023-02-14T22:44:06.568Z,6.87
2023-02-14T22:46:38.781Z,6.86
2023-02-14T22:49:07.803Z,6.87
2023-02-14T22:51:39.616Z,6.86
2023-02-14T22:54:14.672Z,6.85
2023-02-14T22:56:46.690Z,6.86
2023-02-14T22:59:17.062Z,6.84
2023-02-14T23:01:45.798Z,6.83
2023-02-14T23:04:13.709Z,6.80
2023-02-14T23:06:41.430Z,6.65
2023-02-14T23:09:11.031Z,6.65
2023-02-14T23:11:40.896Z,6.71
2023-02-14T23:14:29.239Z,6.68
2023-02-14T23:17:15.077Z,6.66
2023-02-14T23:20:02.697Z,6.67
2023-02-14T23:22:35.216Z,6.60
2023-02-14T23:25:07.097Z,6.56
2023-02-14T23:27:43.040Z,6.50
2023-02-14T23:30:15.957Z,6.39
2023-02-14T23:32:43.724Z,6.40
2023-02-14T23:35:11.749Z,6.42
2023-02-14T23:37:39.380Z,6.23
2023-02-14T23:40:07.709Z,6.27
2023-02-14T23:42:35.337Z,6.26
2023-02-14T23:45:21.113Z,6.22
2023-02-14T23:47:49.123Z,6.20
2023-02-14T23:50:16.584Z,6.13
2023-02-14T23:52:44.702Z,6.21
2023-02-14T23:55:12.472Z,6.29
2023-02-14T23:57:40.581Z,6.37
